Time;durP1;ratioP1;P1;durP2;ratioP2;P2;SDS_P1;SDS_P2;PMS_P1;PMS_P2;Temp;Humidity;BMP_temperature;BMP_pressure;BME280_temperature;BME280_humidity;BME280_pressure;Samples;Min_cycle;Max_cycle;Signal;HPM_P1;HPM_P2
2021/03/20 00:02:47;;;;;;;8.75;2.80;;;;;;;-1.65;75.80;102784.00;6173727;28;20086;-67
2021/03/20 00:05:49;;;;;;;3.08;1.63;;;;;;;-1.64;76.91;102784.88;6174058;28;20046;-67
2021/03/20 00:08:52;;;;;;;4.53;1.90;;;;;;;-1.64;77.67;102784.88;6174091;28;20061;-67
2021/03/20 00:11:55;;;;;;;5.40;2.05;;;;;;;-1.69;77.32;102789.91;6173639;28;20117;-66
2021/03/20 00:14:56;;;;;;;5.93;2.10;;;;;;;-1.72;76.62;102789.84;6173984;28;20058;-67
2021/03/20 00:17:57;;;;;;;5.68;1.45;;;;;;;-1.71;76.78;102789.00;6173656;28;20051;-67
2021/03/20 00:20:58;;;;;;;9.10;2.30;;;;;;;-1.75;78.34;102794.88;6173833;28;20051;-66
2021/03/20 00:24:00;;;;;;;8.57;1.98;;;;;;;-1.79;78.89;102787.88;6173582;28;20101;-66
2021/03/20 00:27:01;;;;;;;10.95;1.92;;;;;;;-1.84;79.17;102782.59;6173768;28;20051;-67
2021/03/20 00:30:04;;;;;;;4.90;2.33;;;;;;;-1.86;79.14;102778.25;6173717;28;20493;-66
2021/03/20 00:33:05;;;;;;;6.95;1.98;;;;;;;-1.88;80.57;102774.72;6173557;28;20062;-66
2021/03/20 00:36:08;;;;;;;8.45;2.20;;;;;;;-1.92;79.71;102768.59;6173590;28;20047;-67
2021/03/20 00:39:09;;;;;;;4.85;1.75;;;;;;;-1.94;79.17;102764.25;6173723;28;20055;-66
2021/03/20 00:42:11;;;;;;;10.55;2.65;;;;;;;-1.98;79.80;102772.69;6173323;28;20066;-66
2021/03/20 00:45:14;;;;;;;8.30;1.70;;;;;;;-2.02;80.26;102771.72;6173690;28;20046;-66
2021/03/20 00:48:19;;;;;;;7.53;1.67;;;;;;;-2.05;81.78;102780.22;6173424;28;20051;-66
2021/03/20 00:51:20;;;;;;;4.75;1.88;;;;;;;-2.07;80.23;102770.72;6173198;28;20171;-68
2021/03/20 00:54:22;;;;;;;3.05;1.40;;;;;;;-2.06;80.46;102769.88;6173318;28;20400;-68
2021/03/20 00:57:23;;;;;;;5.18;1.70;;;;;;;-2.12;81.37;102780.88;6173313;28;20195;-68
2021/03/20 01:00:26;;;;;;;3.53;1.60;;;;;;;-2.16;81.54;102766.16;6173502;28;20173;-66
2021/03/20 01:03:28;;;;;;;4.38;1.40;;;;;;;-2.17;80.65;102761.81;6173070;28;20047;-66
2021/03/20 01:06:29;;;;;;;6.93;1.70;;;;;;;-2.17;81.98;102774.72;6173390;28;20051;-68
2021/03/20 01:09:32;;;;;;;8.27;2.15;;;;;;;-2.19;81.21;102775.47;6173310;28;20061;-66
2021/03/20 01:12:33;;;;;;;12.48;2.22;;;;;;;-2.21;82.07;102769.41;6173015;28;20050;-67
2021/03/20 01:15:34;;;;;;;6.60;1.88;;;;;;;-2.23;81.92;102766.75;6177979;28;20105;-67
2021/03/20 01:18:36;;;;;;;5.43;1.88;;;;;;;-2.22;81.55;102770.25;6177947;28;20495;-67
2021/03/20 01:21:37;;;;;;;4.57;1.95;;;;;;;-2.22;82.04;102773.69;6177603;28;20053;-68
2021/03/20 01:24:38;;;;;;;7.85;3.17;;;;;;;-2.21;83.37;102779.72;6177575;28;20051;-68
2021/03/20 01:27:40;;;;;;;10.15;3.15;;;;;;;-2.20;83.16;102786.59;6177651;28;20058;-65
2021/03/20 01:30:43;;;;;;;11.52;3.40;;;;;;;-2.17;81.72;102781.56;6177587;28;20507;-66
2021/03/20 01:33:44;;;;;;;8.45;2.83;;;;;;;-2.15;83.30;102778.19;6177491;28;20043;-68
2021/03/20 01:36:45;;;;;;;4.18;1.90;;;;;;;-2.15;82.37;102770.47;6177393;28;20135;-68
2021/03/20 01:39:46;;;;;;;3.85;2.33;;;;;;;-2.12;82.77;102780.00;6177517;28;20125;-68
2021/03/20 01:42:48;;;;;;;9.10;1.90;;;;;;;-2.12;83.08;102783.44;6177156;28;20134;-68
2021/03/20 01:45:49;;;;;;;3.75;1.73;;;;;;;-2.10;83.15;102791.22;6177232;28;20392;-68
2021/03/20 01:48:50;;;;;;;6.88;2.70;;;;;;;-2.10;82.72;102799.81;6177081;28;20129;-66
2021/03/20 01:52:15;;;;;;;4.40;1.88;;;;;;;-2.15;82.67;102800.50;6176763;28;20492;-67
2021/03/20 01:55:17;;;;;;;6.35;2.33;;;;;;;-2.16;82.10;102797.06;6177014;28;20043;-67
2021/03/20 01:58:18;;;;;;;8.57;2.45;;;;;;;-2.17;83.34;102799.59;6177117;28;20185;-68
2021/03/20 02:01:22;;;;;;;6.80;2.30;;;;;;;-2.21;83.79;102793.47;6176716;28;20055;-67
2021/03/20 02:04:23;;;;;;;6.22;1.90;;;;;;;-2.27;82.43;102785.53;6176732;28;20078;-65
2021/03/20 02:07:24;;;;;;;5.80;2.50;;;;;;;-2.30;81.91;102776.00;6176740;28;20086;-66
2021/03/20 02:10:29;;;;;;;7.05;2.33;;;;;;;-2.31;83.58;102778.53;6176605;28;20105;-68
2021/03/20 02:13:37;;;;;;;6.95;2.20;;;;;;;-2.35;84.35;102776.69;6176556;28;20051;-69
2021/03/20 02:16:46;;;;;;;9.05;2.40;;;;;;;-2.41;84.56;102777.34;6176430;28;20050;-67
2021/03/20 02:20:08;;;;;;;6.72;2.08;;;;;;;-2.49;84.28;102765.06;6176722;28;20055;-67
2021/03/20 02:23:39;;;;;;;5.43;1.77;;;;;;;-2.52;84.74;102770.13;6176311;28;20102;-67
2021/03/20 02:27:03;;;;;;;8.13;2.38;;;;;;;-2.55;84.23;102770.88;6175263;28;20050;-66
2021/03/20 02:30:42;;;;;;;6.57;2.67;;;;;;;-2.55;85.54;102776.03;6176434;28;20059;-66
2021/03/20 02:33:54;;;;;;;;;;;;;;;-2.58;85.50;102765.66;6176725;28;20054;-66
2021/03/20 02:37:01;;;;;;;5.72;1.60;;;;;;;-2.63;85.17;102777.50;6176143;28;19922;-68
2021/03/20 02:40:07;;;;;;;6.00;1.88;;;;;;;-2.66;84.58;102769.66;6176192;28;20054;-66
2021/03/20 02:43:17;;;;;;;7.97;2.05;;;;;;;-2.64;85.18;102771.44;6175835;28;20419;-68
2021/03/20 02:46:23;;;;;;;4.60;1.90;;;;;;;-2.66;85.28;102761.94;6175867;28;20526;-65
2021/03/20 02:49:30;;;;;;;7.38;2.20;;;;;;;-2.68;85.58;102761.91;6175865;28;20078;-65
2021/03/20 02:52:35;;;;;;;9.60;2.55;;;;;;;-2.68;86.64;102766.13;6174984;28;20423;-65
2021/03/20 02:55:40;;;;;;;11.43;2.00;;;;;;;-2.71;86.44;102772.06;6175471;28;20500;-66
2021/03/20 02:58:47;;;;;;;7.40;2.40;;;;;;;-2.73;86.39;102760.84;6176002;28;20059;-66
2021/03/20 03:01:51;;;;;;;4.75;2.08;;;;;;;-2.72;87.20;102770.34;6175314;28;20054;-65
2021/03/20 03:04:59;;;;;;;10.35;2.65;;;;;;;-2.72;86.09;102772.91;6175287;28;20193;-66
2021/03/20 03:08:06;;;;;;;5.45;2.72;;;;;;;-2.75;86.12;102777.06;6175048;28;20412;-66
2021/03/20 03:11:12;;;;;;;10.38;2.42;;;;;;;-2.76;86.68;102767.59;6175426;28;20054;-67
2021/03/20 03:14:17;;;;;;;8.90;2.22;;;;;;;-2.82;87.85;102758.84;6175369;28;20047;-65
2021/03/20 03:17:21;;;;;;;7.53;2.78;;;;;;;-2.86;88.36;102762.16;6175328;28;20098;-66
2021/03/20 03:20:27;;;;;;;5.80;2.30;;;;;;;-2.83;88.40;102764.81;6174849;28;20050;-65
2021/03/20 03:23:31;;;;;;;6.78;2.33;;;;;;;-2.84;88.38;102763.06;6175132;28;20050;-65
2021/03/20 03:26:36;;;;;;;9.65;2.78;;;;;;;-2.85;89.18;102769.03;6174617;28;20057;-65
2021/03/20 03:29:38;;;;;;;9.63;2.47;;;;;;;-2.87;88.75;102768.09;6174212;28;20553;-66
2021/03/20 03:32:43;;;;;;;6.15;2.40;;;;;;;-2.91;87.00;102761.09;6172008;28;20599;-66
2021/03/20 03:35:51;;;;;;;7.30;2.80;;;;;;;-2.88;87.86;102760.31;6174290;28;20051;-66
2021/03/20 03:38:57;;;;;;;7.47;3.30;;;;;;;-2.90;88.72;102759.41;6174921;28;20058;-68
2021/03/20 03:41:58;;;;;;;8.35;3.15;;;;;;;-2.92;89.07;102759.34;6174448;28;20057;-68
2021/03/20 03:44:59;;;;;;;7.20;2.47;;;;;;;-2.90;89.48;102746.56;6174629;28;20050;-66
2021/03/20 03:48:01;;;;;;;11.18;3.10;;;;;;;-2.90;88.57;102743.97;6174204;28;20503;-67
2021/03/20 03:51:11;;;;;;;9.30;2.70;;;;;;;-2.91;88.70;102744.78;6173363;28;20355;-67
2021/03/20 03:54:12;;;;;;;8.32;2.95;;;;;;;-2.95;89.35;102743.81;6174560;28;20054;-65
2021/03/20 03:57:28;;;;;;;8.77;3.20;;;;;;;-2.96;89.59;102748.91;6174364;28;20078;-65
2021/03/20 04:00:38;;;;;;;5.00;2.42;;;;;;;-3.00;89.54;102747.91;6174086;28;20575;-65
2021/03/20 04:03:56;;;;;;;10.95;2.70;;;;;;;-3.02;89.23;102758.97;6173850;28;20530;-65
2021/03/20 04:07:25;;;;;;;6.75;2.42;;;;;;;-2.93;89.37;102770.47;6173979;28;20508;-65
2021/03/20 04:10:32;;;;;;;6.35;2.67;;;;;;;-2.92;89.08;102767.06;6173874;28;20046;-65
2021/03/20 04:13:40;;;;;;;7.65;2.83;;;;;;;-2.93;89.71;102760.16;6173972;28;20062;-65
2021/03/20 04:16:47;;;;;;;9.20;2.90;;;;;;;-2.91;90.31;102758.50;6173907;28;20047;-67
2021/03/20 04:20:01;;;;;;;8.18;2.58;;;;;;;-2.88;90.89;102762.91;6174099;28;20055;-67
2021/03/20 04:23:07;;;;;;;10.00;2.95;;;;;;;-2.82;90.87;102769.16;6173638;28;20070;-65
2021/03/20 04:26:17;;;;;;;9.85;3.00;;;;;;;-2.81;90.35;102772.59;6173788;28;20488;-66
2021/03/20 04:29:26;;;;;;;7.50;2.30;;;;;;;-2.77;89.81;102768.41;6173677;28;20130;-66
2021/03/20 04:32:30;;;;;;;6.83;2.60;;;;;;;-2.73;90.43;102760.84;6173735;28;20051;-68
2021/03/20 04:35:35;;;;;;;7.40;2.33;;;;;;;-2.71;90.11;102751.50;6173547;28;20340;-67
2021/03/20 04:38:38;;;;;;;9.50;2.75;;;;;;;-2.66;90.27;102761.94;6173755;28;20051;-65
2021/03/20 04:41:40;;;;;;;7.00;2.42;;;;;;;-2.62;90.52;102753.50;6173370;28;20062;-66
2021/03/20 04:44:41;;;;;;;12.75;2.50;;;;;;;-2.58;90.68;102753.66;6173761;28;20057;-65
2021/03/20 04:47:42;;;;;;;6.10;2.03;;;;;;;-2.55;90.32;102753.72;6173622;28;20420;-66
2021/03/20 04:50:47;;;;;;;8.15;2.90;;;;;;;-2.53;90.25;102751.22;6178472;28;20062;-66
2021/03/20 04:53:49;;;;;;;6.00;2.03;;;;;;;-2.48;88.97;102744.53;6178327;28;20464;-66
2021/03/20 04:56:54;;;;;;;4.15;2.10;;;;;;;-2.36;88.45;102746.63;6178413;28;20511;-66
2021/03/20 05:00:01;;;;;;;4.07;2.28;;;;;;;-2.43;88.39;102742.09;6178273;28;20338;-66
2021/03/20 05:03:12;;;;;;;5.38;2.33;;;;;;;-2.45;88.81;102748.88;6178223;28;20109;-66
2021/03/20 05:06:16;;;;;;;8.57;3.00;;;;;;;-2.49;89.59;102747.94;6178028;28;20043;-66
2021/03/20 05:09:21;;;;;;;9.00;2.25;;;;;;;-2.47;89.79;102751.41;6178310;28;20106;-65
2021/03/20 05:12:26;;;;;;;5.45;2.47;;;;;;;-2.44;88.52;102742.94;6177928;28;20125;-68
2021/03/20 05:15:30;;;;;;;6.80;2.35;;;;;;;-2.54;86.06;102739.19;6178275;28;20522;-67
2021/03/20 05:18:30;;;;;;;6.88;2.35;;;;;;;-2.55;86.39;102728.00;6177939;28;20059;-67
2021/03/20 05:21:35;;;;;;;6.88;2.35;;;;;;;-2.42;87.03;102743.84;6177594;28;20050;-67
2021/03/20 05:24:38;;;;;;;6.25;1.95;;;;;;;-2.34;88.03;102742.38;6177715;28;20051;-67
2021/03/20 05:27:39;;;;;;;5.88;2.30;;;;;;;-2.30;88.50;102757.97;6177617;28;20084;-66
2021/03/20 05:30:40;;;;;;;6.97;2.28;;;;;;;-2.24;88.88;102752.16;6177750;28;20490;-66
2021/03/20 05:33:43;;;;;;;7.82;2.33;;;;;;;-2.20;88.54;102755.69;6177451;28;20113;-66
2021/03/20 05:36:44;;;;;;;7.35;2.20;;;;;;;-2.16;89.30;102763.56;6177546;28;20097;-66
2021/03/20 05:39:46;;;;;;;5.05;2.00;;;;;;;-2.22;88.88;102768.53;6177455;28;20058;-66
2021/03/20 05:43:19;;;;;;;6.75;2.95;;;;;;;-2.17;89.23;102758.38;6177298;28;20059;-66
2021/03/20 05:46:31;;;;;;;7.72;2.47;;;;;;;-2.08;89.12;102756.09;6177073;28;20055;-71
2021/03/20 05:49:45;;;;;;;6.18;2.30;;;;;;;-2.05;89.65;102761.31;6177228;28;20424;-72
2021/03/20 05:52:57;;;;;;;5.60;2.40;;;;;;;-2.01;90.38;102764.88;6176934;28;20504;-72
2021/03/20 05:56:07;;;;;;;4.82;2.10;;;;;;;-1.98;90.34;102752.09;6177175;28;20047;-71
2021/03/20 05:59:20;;;;;;;7.10;2.30;;;;;;;-1.99;89.51;102758.94;6176663;28;20092;-73
2021/03/20 06:02:37;;;;;;;5.75;2.55;;;;;;;-1.98;89.96;102759.81;6176876;28;20062;-71
2021/03/20 06:05:49;;;;;;;9.93;2.28;;;;;;;-1.97;89.92;102751.25;6176963;28;20078;-72
2021/03/20 06:09:03;;;;;;;8.73;2.10;;;;;;;-1.93;89.71;102740.22;6176688;28;20145;-72
2021/03/20 06:12:19;;;;;;;8.82;2.50;;;;;;;-1.86;89.81;102749.91;6176822;28;20057;-71
2021/03/20 06:15:46;;;;;;;8.02;2.40;;;;;;;-1.77;90.25;102768.22;6176539;28;20416;-72
2021/03/20 06:19:15;;;;;;;5.97;2.40;;;;;;;-1.71;90.39;102759.78;6176627;28;20058;-71
2021/03/20 06:23:04;;;;;;;7.43;2.67;;;;;;;-1.70;89.22;102772.69;6176584;28;20054;-72
2021/03/20 06:26:11;;;;;;;5.65;2.22;;;;;;;-1.78;87.96;102769.00;6130400;28;20051;-73
2021/03/20 06:29:18;;;;;;;8.18;2.60;;;;;;;-1.67;88.49;102780.53;6176328;28;20455;-72
2021/03/20 06:32:23;;;;;;;5.38;2.80;;;;;;;-1.61;88.28;102779.84;6176064;28;20467;-73
2021/03/20 06:35:34;;;;;;;10.98;2.88;;;;;;;-1.53;88.15;102780.94;6176131;28;20423;-72
2021/03/20 06:38:40;;;;;;;9.15;3.20;;;;;;;-1.51;88.26;102780.97;6176082;28;20058;-73
2021/03/20 06:41:46;;;;;;;10.00;3.65;;;;;;;-1.45;87.59;102774.31;6175934;28;20057;-73
2021/03/20 06:44:53;;;;;;;11.15;4.10;;;;;;;-1.39;86.69;102768.44;6175935;28;20051;-73
2021/03/20 06:47:58;;;;;;;8.90;4.00;;;;;;;-1.38;86.10;102767.59;6175756;28;20046;-73
2021/03/20 06:51:00;;;;;;;14.32;3.95;;;;;;;-1.46;85.22;102779.41;6175598;28;20066;-73
2021/03/20 06:54:04;;;;;;;8.30;3.40;;;;;;;-1.53;85.38;102786.09;6175927;28;20062;-73
2021/03/20 06:57:06;;;;;;;8.07;2.60;;;;;;;-1.55;84.17;102786.03;6175429;28;20105;-71
2021/03/20 07:00:20;;;;;;;6.18;2.25;;;;;;;-1.48;82.36;102775.91;6175914;28;20051;-71
2021/03/20 07:03:54;;;;;;;6.03;2.65;;;;;;;-1.41;82.55;102775.25;6175047;28;20058;-73
2021/03/20 07:07:14;;;;;;;10.20;2.78;;;;;;;-1.27;81.28;102776.53;6175413;28;20050;-71
2021/03/20 07:10:25;;;;;;;7.72;2.35;;;;;;;-1.18;78.22;102783.63;6175063;28;20570;-72
2021/03/20 07:13:27;;;;;;;6.97;2.50;;;;;;;-1.10;77.40;102784.72;6174961;28;20057;-72
2021/03/20 07:16:31;;;;;;;10.10;2.60;;;;;;;-1.06;76.99;102791.72;6175352;28;20047;-72
2021/03/20 07:19:32;;;;;;;8.27;2.75;;;;;;;-0.99;77.31;102788.47;6175041;28;20055;-72
2021/03/20 07:22:37;;;;;;;3.50;1.88;;;;;;;-0.96;78.66;102798.88;6174760;28;20529;-72
2021/03/20 07:25:42;;;;;;;5.70;2.40;;;;;;;-0.72;79.32;102806.41;6175183;28;20180;-72
2021/03/20 07:28:49;;;;;;;9.88;2.42;;;;;;;-0.62;77.66;102799.78;6174869;28;20046;-71
2021/03/20 07:31:56;;;;;;;7.70;2.47;;;;;;;-0.55;75.21;102799.94;6174797;28;20063;-74
2021/03/20 07:35:12;;;;;;;4.95;1.77;;;;;;;-0.47;73.40;102787.25;6175160;28;20051;-74
2021/03/20 07:38:23;;;;;;;6.25;1.50;;;;;;;-0.33;74.26;102791.03;6174817;28;20066;-73
2021/03/20 07:41:24;;;;;;;7.38;2.00;;;;;;;-0.28;72.35;102792.00;6174593;28;20089;-73
2021/03/20 07:44:27;;;;;;;8.15;2.28;;;;;;;-0.20;73.59;102784.47;6173956;28;20401;-73
2021/03/20 07:47:32;;;;;;;5.88;1.67;;;;;;;-0.26;73.34;102794.66;6174006;28;20099;-74
2021/03/20 07:50:38;;;;;;;6.28;1.67;;;;;;;-0.01;73.06;102788.34;6174231;28;20054;-75
2021/03/20 07:53:43;;;;;;;8.80;2.28;;;;;;;0.18;70.66;102794.81;6174206;28;20055;-74
2021/03/20 07:56:44;;;;;;;13.43;2.53;;;;;;;0.15;70.40;102799.94;6172794;28;20059;-70
2021/03/20 07:59:48;;;;;;;6.10;1.77;;;;;;;0.08;71.59;102796.31;6173840;28;20050;-71
2021/03/20 08:02:49;;;;;;;7.45;1.88;;;;;;;0.42;71.00;102804.84;6173020;28;20467;-72
2021/03/20 08:05:50;;;;;;;5.35;1.77;;;;;;;0.36;69.35;102802.97;6173775;28;20054;-71
2021/03/20 08:09:10;;;;;;;6.18;1.63;;;;;;;0.58;67.62;102793.09;6173266;28;20500;-70
2021/03/20 08:12:13;;;;;;;5.70;1.90;;;;;;;0.66;67.33;102782.06;6172861;28;20063;-71
2021/03/20 08:15:19;;;;;;;3.22;1.63;;;;;;;0.63;68.65;102794.91;6173715;28;20101;-73
2021/03/20 08:18:23;;;;;;;5.00;1.65;;;;;;;0.61;65.65;102798.34;6173427;28;20105;-74
2021/03/20 08:21:42;;;;;;;3.25;1.33;;;;;;;0.73;64.14;102785.66;6172983;28;20137;-72
2021/03/20 08:25:05;;;;;;;8.32;1.52;;;;;;;0.99;62.42;102784.44;6173038;28;20054;-72
2021/03/20 08:28:22;;;;;;;4.53;1.77;;;;;;;0.69;62.38;102779.53;6173539;28;20058;-71
2021/03/20 08:31:41;;;;;;;8.00;1.35;;;;;;;0.95;63.25;102771.41;6172598;28;20050;-71
2021/03/20 08:34:55;;;;;;;5.70;1.67;;;;;;;0.97;63.90;102762.81;6172901;28;20065;-71
2021/03/20 08:38:15;;;;;;;6.13;1.35;;;;;;;0.97;63.22;102755.06;6173312;28;20515;-71
2021/03/20 08:41:28;;;;;;;7.10;2.65;;;;;;;0.92;64.60;102761.00;6172241;28;20055;-71
2021/03/20 08:44:52;;;;;;;3.70;1.15;;;;;;;1.23;63.88;102745.19;6173237;28;20057;-71
2021/03/20 08:48:13;;;;;;;6.57;1.38;;;;;;;0.93;64.54;102750.66;6172950;28;20061;-71
2021/03/20 08:51:27;;;;;;;4.40;1.50;;;;;;;1.04;65.04;102744.81;6172389;28;20694;-71
2021/03/20 08:54:49;;;;;;;2.70;1.40;;;;;;;1.13;64.34;102755.34;6173226;28;20058;-71
2021/03/20 08:57:58;;;;;;;3.95;1.67;;;;;;;1.31;64.47;102745.28;6172930;28;20059;-71
2021/03/20 09:01:02;;;;;;;2.15;1.17;;;;;;;1.13;61.65;102739.78;6172574;28;20085;-71
2021/03/20 09:04:07;;;;;;;4.25;1.48;;;;;;;1.23;62.20;102740.00;6172514;28;20054;-71
2021/03/20 09:07:14;;;;;;;4.90;1.60;;;;;;;1.31;60.93;102737.53;6172822;28;20098;-71
2021/03/20 09:10:21;;;;;;;4.63;1.30;;;;;;;1.66;60.60;102745.00;6172925;28;20054;-71
2021/03/20 09:13:27;;;;;;;4.93;1.75;;;;;;;1.41;59.91;102754.09;6171940;28;20059;-72
2021/03/20 09:16:34;;;;;;;5.85;1.30;;;;;;;1.59;59.04;102754.41;6172810;28;20419;-71
2021/03/20 09:19:38;;;;;;;5.53;1.50;;;;;;;1.64;59.69;102744.13;6172999;28;20085;-72
2021/03/20 09:22:45;;;;;;;6.57;1.30;;;;;;;1.86;56.87;102741.00;6172214;28;20054;-71
2021/03/20 09:25:46;;;;;;;4.28;1.08;;;;;;;1.95;56.28;102732.47;6172638;28;20062;-71
2021/03/20 09:29:14;;;;;;;6.78;1.00;;;;;;;2.08;55.82;102742.16;6172519;28;20051;-72
2021/03/20 09:32:15;;;;;;;4.55;1.35;;;;;;;2.01;54.35;102745.53;6172311;28;20050;-71
2021/03/20 09:35:22;;;;;;;2.80;1.30;;;;;;;1.92;56.51;102743.69;6174980;28;20054;-72
2021/03/20 09:38:47;;;;;;;2.90;1.42;;;;;;;2.11;58.27;102755.19;6177341;28;20058;-71
2021/03/20 09:41:48;;;;;;;6.00;1.50;;;;;;;2.48;56.31;102750.47;6176213;28;20047;-71
2021/03/20 09:44:50;;;;;;;3.45;1.00;;;;;;;2.22;55.32;102748.41;6176912;28;20558;-71
2021/03/20 09:47:52;;;;;;;4.82;1.33;;;;;;;2.36;55.52;102733.03;6176793;28;20109;-72
2021/03/20 09:50:53;;;;;;;4.00;1.40;;;;;;;2.57;53.88;102736.75;6174154;28;20059;-72
2021/03/20 09:53:55;;;;;;;3.85;1.40;;;;;;;2.23;54.13;102739.81;6176503;28;20133;-72
2021/03/20 09:56:57;;;;;;;5.10;1.40;;;;;;;2.24;54.67;102728.56;6176905;28;20058;-72
2021/03/20 09:59:58;;;;;;;6.40;1.73;;;;;;;2.42;54.59;102727.94;6172288;28;20401;-74
2021/03/20 10:02:59;;;;;;;2.88;1.20;;;;;;;2.57;53.90;102727.25;6173667;28;20097;-74
2021/03/20 10:06:26;;;;;;;4.07;1.50;;;;;;;2.47;53.72;102723.66;6175543;28;20560;-72
2021/03/20 10:09:27;;;;;;;4.10;1.10;;;;;;;2.30;52.53;102725.19;6168982;28;20729;-73
2021/03/20 10:12:35;;;;;;;5.78;1.67;;;;;;;2.36;53.65;102722.66;6175013;28;20101;-72
2021/03/20 10:15:37;;;;;;;3.92;1.60;;;;;;;2.36;54.38;102721.78;6176011;28;20452;-73
2021/03/20 10:18:56;;;;;;;4.35;1.85;;;;;;;2.61;54.12;102726.41;6174797;28;20057;-78
2021/03/20 10:22:00;;;;;;;7.85;1.70;;;;;;;2.57;52.84;102716.00;6175029;28;20054;-76
2021/03/20 10:25:05;;;;;;;2.20;1.30;;;;;;;2.57;51.43;102714.25;6175831;28;20042;-76
2021/03/20 10:28:06;;;;;;;3.08;1.00;;;;;;;2.78;50.84;102716.22;6175831;28;20049;-78
2021/03/20 10:31:08;;;;;;;5.40;1.50;;;;;;;3.03;50.64;102701.75;6170631;28;20111;-76
2021/03/20 10:34:11;;;;;;;2.92;1.13;;;;;;;3.25;49.34;102700.22;6156689;28;20050;-76
2021/03/20 10:37:14;;;;;;;3.47;1.48;;;;;;;3.36;51.96;102689.91;6175876;28;20055;-77
2021/03/20 10:40:23;;;;;;;3.78;1.35;;;;;;;3.64;50.46;102686.66;6174937;28;20051;-76
2021/03/20 10:43:25;;;;;;;4.22;1.58;;;;;;;3.64;50.85;102689.25;6167635;28;20043;-77
2021/03/20 10:46:29;;;;;;;6.80;1.40;;;;;;;3.34;49.86;102689.03;6173915;28;20050;-77
2021/03/20 10:49:34;;;;;;;3.72;1.40;;;;;;;3.14;50.56;102686.28;6175897;28;20058;-76
2021/03/20 10:52:38;;;;;;;1.80;1.10;;;;;;;3.31;45.83;102679.47;6174799;28;20059;-76
2021/03/20 10:55:43;;;;;;;3.80;1.60;;;;;;;3.37;45.92;102681.28;6174358;28;20050;-76
2021/03/20 10:58:44;;;;;;;1.75;1.20;;;;;;;3.54;45.65;102674.44;6175637;28;20051;-77
2021/03/20 11:01:45;;;;;;;3.65;1.30;;;;;;;3.56;46.33;102676.22;6174799;28;20046;-76
2021/03/20 11:04:46;;;;;;;3.80;1.63;;;;;;;3.48;48.56;102679.63;6174970;28;20081;-77
2021/03/20 11:07:49;;;;;;;7.43;2.28;;;;;;;3.62;46.07;102672.78;6175167;28;20500;-76
2021/03/20 11:11:05;;;;;;;5.07;1.52;;;;;;;3.72;46.11;102669.34;6174560;28;20051;-77
2021/03/20 11:14:08;;;;;;;8.02;1.70;;;;;;;3.79;45.24;102659.88;6175141;28;20404;-70
2021/03/20 11:17:16;;;;;;;3.97;1.80;;;;;;;3.78;43.26;102651.22;6174321;28;20054;-69
2021/03/20 11:20:22;;;;;;;4.20;1.83;;;;;;;3.99;45.02;102653.03;6174178;28;20061;-68
2021/03/20 11:23:29;;;;;;;3.58;1.70;;;;;;;3.52;45.63;102644.97;6166297;28;20491;-69
2021/03/20 11:26:41;;;;;;;5.55;1.25;;;;;;;3.91;45.65;102646.09;6174584;28;20504;-69
2021/03/20 11:29:44;;;;;;;9.30;1.60;;;;;;;3.61;43.56;102638.97;6174744;28;20051;-69
2021/03/20 11:32:47;;;;;;;4.82;1.13;;;;;;;3.74;44.94;102631.25;6173966;28;20516;-70
2021/03/20 11:35:50;;;;;;;4.78;1.55;;;;;;;4.05;45.35;102628.81;6174271;28;20051;-69
2021/03/20 11:38:51;;;;;;;3.72;1.40;;;;;;;3.84;43.76;102626.97;6172195;28;20050;-70
2021/03/20 11:42:01;;;;;;;6.57;2.75;;;;;;;3.93;45.14;102621.81;6172740;28;20055;-71
2021/03/20 11:45:08;;;;;;;6.07;1.30;;;;;;;4.07;46.27;102624.47;6174124;28;20042;-70
2021/03/20 11:48:15;;;;;;;4.07;1.55;;;;;;;3.74;46.57;102623.44;6173995;28;20051;-78
2021/03/20 11:51:26;;;;;;;2.05;1.10;;;;;;;3.97;48.18;102615.75;6173977;28;20087;-72
2021/03/20 11:54:30;;;;;;;3.30;1.20;;;;;;;3.92;45.48;102607.06;6150298;29;20083;-75
2021/03/20 11:57:36;;;;;;;2.33;1.50;;;;;;;4.16;45.98;102619.28;6149631;28;20107;-78
2021/03/20 12:00:41;;;;;;;3.97;1.33;;;;;;;4.06;44.72;102601.91;6150434;28;20086;-76
2021/03/20 12:03:42;;;;;;;3.92;1.60;;;;;;;4.21;47.94;102606.28;6149483;28;20138;-76
2021/03/20 12:06:43;;;;;;;6.95;1.60;;;;;;;4.08;47.36;102598.44;6150140;28;20066;-77
2021/03/20 12:09:44;;;;;;;5.63;1.88;;;;;;;4.25;49.01;102588.09;6149700;28;20516;-75
2021/03/20 12:12:48;;;;;;;3.75;1.65;;;;;;;4.46;49.49;102591.63;6149345;28;20055;-77
2021/03/20 12:15:53;;;;;;;7.68;1.67;;;;;;;4.44;48.15;102586.38;6169340;28;20046;-72
2021/03/20 12:19:23;;;;;;;4.88;1.33;;;;;;;4.53;47.37;102565.56;6173537;28;20582;-77
2021/03/20 12:22:42;;;;;;;8.00;2.65;;;;;;;4.75;48.96;102558.66;6143652;28;20610;-77
2021/03/20 12:25:46;;;;;;;7.35;1.92;;;;;;;4.91;47.87;102545.63;6148108;28;20142;-77
2021/03/20 12:28:48;;;;;;;3.75;1.60;;;;;;;4.84;47.44;102544.75;6150040;28;20054;-77
2021/03/20 12:31:49;;;;;;;4.88;2.40;;;;;;;4.91;48.41;102530.00;6171809;28;20043;-77
2021/03/20 12:34:51;;;;;;;6.70;2.00;;;;;;;5.23;49.96;102525.59;6173293;28;20436;-76
2021/03/20 12:38:11;;;;;;;3.20;1.50;;;;;;;5.20;48.17;102517.78;6173641;28;20058;-76
2021/03/20 12:41:17;;;;;;;5.78;1.83;;;;;;;5.36;50.06;102513.41;6172531;28;20046;-76
2021/03/20 12:44:22;;;;;;;5.53;2.13;;;;;;;5.36;49.99;102513.41;6173417;28;20047;-76
2021/03/20 12:47:23;;;;;;;2.92;1.80;;;;;;;5.15;49.10;102503.91;6164980;28;20055;-75
2021/03/20 12:50:24;;;;;;;2.45;1.52;;;;;;;5.22;51.58;102503.03;6173142;28;20133;-74
2021/03/20 12:53:25;;;;;;;4.53;2.22;;;;;;;5.84;49.08;102487.97;6172242;28;20419;-75
2021/03/20 12:56:26;;;;;;;5.85;2.17;;;;;;;5.70;49.23;102480.22;6173010;28;20047;-74
2021/03/20 12:59:27;;;;;;;4.75;2.10;;;;;;;5.44;50.34;102485.53;6172921;28;20082;-75
2021/03/20 13:02:28;;;;;;;8.52;2.60;;;;;;;5.49;51.37;102475.94;6172658;28;20047;-73
2021/03/20 13:05:31;;;;;;;3.05;1.88;;;;;;;5.52;52.37;102482.91;6172949;28;20046;-75
2021/03/20 13:08:36;;;;;;;4.63;2.30;;;;;;;5.37;51.35;102463.00;6173315;28;20054;-75
2021/03/20 13:11:37;;;;;;;5.38;2.30;;;;;;;5.33;52.68;102459.53;6177301;28;20145;-76
2021/03/20 13:14:39;;;;;;;5.80;2.53;;;;;;;5.37;52.71;102459.53;6177947;28;20051;-72
2021/03/20 13:17:40;;;;;;;6.38;2.30;;;;;;;5.46;52.82;102464.69;6177406;28;20504;-77
2021/03/20 13:20:41;;;;;;;3.72;2.67;;;;;;;5.14;52.08;102470.91;6177291;28;20051;-77
2021/03/20 13:23:43;;;;;;;7.43;2.97;;;;;;;5.20;54.35;102446.53;6177492;28;20135;-76
2021/03/20 13:26:43;;;;;;;7.65;3.35;;;;;;;5.07;54.68;102453.53;6177314;28;20051;-76
2021/03/20 13:29:45;;;;;;;5.35;2.90;;;;;;;5.31;55.57;102439.53;6177490;28;20496;-77
2021/03/20 13:32:46;;;;;;;6.70;2.65;;;;;;;5.29;53.62;102443.91;6176714;28;20061;-75
2021/03/20 13:35:47;;;;;;;4.93;2.60;;;;;;;5.10;54.07;102437.91;6177626;28;20499;-76
2021/03/20 13:38:48;;;;;;;10.98;3.03;;;;;;;5.12;55.20;102424.84;6177060;28;20476;-75
2021/03/20 13:41:49;;;;;;;6.93;2.97;;;;;;;5.42;54.81;102429.94;6176796;28;20057;-75
2021/03/20 13:44:52;;;;;;;6.63;3.15;;;;;;;5.14;55.29;102426.59;6177256;28;20051;-78
2021/03/20 13:47:53;;;;;;;7.47;4.05;;;;;;;5.20;55.36;102428.31;6176636;28;20463;-76
2021/03/20 13:50:55;;;;;;;4.75;2.70;;;;;;;5.48;56.90;102429.03;6176174;28;20059;-77
2021/03/20 13:53:56;;;;;;;6.07;2.80;;;;;;;5.31;55.91;102431.72;6176576;28;20062;-77
2021/03/20 13:56:57;;;;;;;5.72;3.33;;;;;;;5.50;55.89;102425.56;6176754;28;20101;-76
2021/03/20 13:59:58;;;;;;;6.13;3.13;;;;;;;5.33;55.72;102427.38;6176401;28;20046;-78
2021/03/20 14:02:59;;;;;;;4.63;3.00;;;;;;;5.29;55.58;102402.19;6175935;28;20105;-76
2021/03/20 14:06:01;;;;;;;9.35;3.63;;;;;;;5.28;55.86;102410.91;6176205;28;20050;-78
2021/03/20 14:09:03;;;;;;;4.47;3.15;;;;;;;5.35;56.30;102399.56;6176443;28;20555;-75
2021/03/20 14:12:04;;;;;;;8.30;3.30;;;;;;;5.49;57.06;102395.13;6175736;28;20078;-76
2021/03/20 14:15:08;;;;;;;5.95;3.40;;;;;;;5.51;57.57;102372.53;6176837;28;20046;-78
2021/03/20 14:18:13;;;;;;;8.70;3.22;;;;;;;5.67;56.59;102377.63;6176191;28;20059;-76
2021/03/20 14:21:18;;;;;;;5.90;3.33;;;;;;;5.55;57.18;102379.47;6175445;28;20043;-76
2021/03/20 14:24:19;;;;;;;6.25;3.58;;;;;;;5.77;56.39;102369.75;6176449;28;20054;-76
2021/03/20 14:27:20;;;;;;;9.05;3.38;;;;;;;5.57;56.19;102372.47;6176081;28;20097;-76
2021/03/20 14:30:25;;;;;;;6.80;3.22;;;;;;;5.57;56.45;102374.22;6176153;28;20097;-76
2021/03/20 14:33:28;;;;;;;9.05;3.10;;;;;;;5.50;56.62;102372.56;6175246;28;20412;-76